createdAt,value
2022-08-27T00:00:45.540Z,15.80
2022-08-27T00:03:13.643Z,13.27
2022-08-27T00:05:41.764Z,15.45
2022-08-27T00:08:12.653Z,16.55
2022-08-27T00:10:41.682Z,20.88
2022-08-27T00:13:09.461Z,13.82
2022-08-27T00:15:37.165Z,15.23
2022-08-27T00:18:05.607Z,15.27
2022-08-27T00:20:33.591Z,15.13
2022-08-27T00:23:01.422Z,16.48
2022-08-27T00:25:29.362Z,15.32
2022-08-27T00:27:57.073Z,17.15
2022-08-27T00:30:25.189Z,12.82
2022-08-27T00:32:53.031Z,19.98
2022-08-27T00:35:20.822Z,18.17
2022-08-27T00:37:50.272Z,22.42
2022-08-27T00:40:20.435Z,20.92
2022-08-27T00:42:48.365Z,19.17
2022-08-27T00:45:17.288Z,24.35
2022-08-27T00:47:50.551Z,21.05
2022-08-27T00:50:20.833Z,29.63
2022-08-27T00:52:59.823Z,29.83
2022-08-27T00:55:33.355Z,25.75
2022-08-27T00:58:08.328Z,24.92
2022-08-27T01:00:36.396Z,24.70
2022-08-27T01:03:04.403Z,25.98
2022-08-27T01:05:33.783Z,11.93
2022-08-27T01:08:04.341Z,11.88
2022-08-27T01:10:32.548Z,14.80
2022-08-27T01:13:01.008Z,7.88
2022-08-27T01:15:30.364Z,12.15
2022-08-27T01:17:58.285Z,12.85
2022-08-27T01:20:29.603Z,9.90
2022-08-27T01:23:06.793Z,11.87
2022-08-27T01:25:34.570Z,14.35
2022-08-27T01:28:03.639Z,14.32
2022-08-27T01:30:31.793Z,9.80
2022-08-27T01:32:59.568Z,10.02
2022-08-27T01:35:27.412Z,10.88
2022-08-27T01:37:56.976Z,11.35
2022-08-27T01:40:25.603Z,14.73
2022-08-27T01:42:55.678Z,12.45
2022-08-27T01:45:25.288Z,13.38
2022-08-27T01:47:53.072Z,10.43
2022-08-27T01:50:29.241Z,10.88
2022-08-27T01:52:57.237Z,14.73
2022-08-27T01:55:26.133Z,15.40
2022-08-27T01:57:55.115Z,13.82
2022-08-27T02:00:24.944Z,15.35
2022-08-27T02:02:53.002Z,15.25
2022-08-27T02:05:20.866Z,17.42
2022-08-27T02:07:48.657Z,16.95
2022-08-27T02:10:19.542Z,13.93
2022-08-27T02:12:47.629Z,17.75
2022-08-27T02:15:15.385Z,14.73
2022-08-27T02:17:43.580Z,14.30
2022-08-27T02:20:11.940Z,14.68
2022-08-27T02:22:39.715Z,13.63
2022-08-27T02:25:10.250Z,14.30
2022-08-27T02:27:38.350Z,11.50
2022-08-27T02:30:06.506Z,13.30
2022-08-27T02:32:34.226Z,16.08
2022-08-27T02:35:03.648Z,15.38
2022-08-27T02:37:31.620Z,15.80
2022-08-27T02:39:59.728Z,12.55
2022-08-27T02:42:27.429Z,12.77
2022-08-27T02:44:55.138Z,12.50
2022-08-27T02:47:22.995Z,14.07
2022-08-27T02:49:51.333Z,14.07
2022-08-27T02:52:25.144Z,16.63
2022-08-27T02:54:53.112Z,15.73
2022-08-27T02:57:20.878Z,14.25
2022-08-27T02:59:48.720Z,12.90
2022-08-27T03:02:16.655Z,12.95
2022-08-27T03:04:44.511Z,13.93
2022-08-27T03:07:18.514Z,12.35
2022-08-27T03:09:46.860Z,10.65
2022-08-27T03:12:16.001Z,14.77
2022-08-27T03:14:43.695Z,17.27
2022-08-27T03:17:30.164Z,12.63
2022-08-27T03:19:57.923Z,15.68
2022-08-27T03:22:26.121Z,15.63
2022-08-27T03:24:55.532Z,17.55
2022-08-27T03:27:23.368Z,13.77
2022-08-27T03:29:51.122Z,15.20
2022-08-27T03:32:18.796Z,15.25
2022-08-27T03:34:46.618Z,13.98
2022-08-27T03:37:14.416Z,13.50
2022-08-27T03:39:42.286Z,14.18
2022-08-27T03:42:10.561Z,12.05
2022-08-27T03:44:38.362Z,14.10
2022-08-27T03:47:06.059Z,16.85
2022-08-27T03:49:33.877Z,17.60
2022-08-27T03:52:02.362Z,15.52
2022-08-27T03:54:31.198Z,17.77
2022-08-27T03:56:58.955Z,16.40
2022-08-27T03:59:26.662Z,12.48
2022-08-27T04:01:54.568Z,12.88
2022-08-27T04:04:23.804Z,13.10
2022-08-27T04:06:51.739Z,9.88
2022-08-27T04:09:19.471Z,9.65
2022-08-27T04:11:47.230Z,7.75
2022-08-27T04:14:20.811Z,9.40
2022-08-27T04:16:54.852Z,7.90
2022-08-27T04:19:26.876Z,8.85
2022-08-27T04:21:59.501Z,12.38
2022-08-27T04:24:27.227Z,8.00
2022-08-27T04:26:54.939Z,9.25
2022-08-27T04:29:22.703Z,8.88
2022-08-27T04:31:50.666Z,7.63
2022-08-27T04:34:18.958Z,8.55
2022-08-27T04:36:47.269Z,7.47
2022-08-27T04:39:15.695Z,7.50
2022-08-27T04:41:43.872Z,10.30
2022-08-27T04:44:12.406Z,8.35
2022-08-27T04:46:41.033Z,8.18
2022-08-27T04:49:15.332Z,9.68
2022-08-27T04:51:43.395Z,10.27
2022-08-27T04:54:11.521Z,10.30
2022-08-27T04:56:39.906Z,10.10
2022-08-27T04:59:09.205Z,13.98
2022-08-27T05:01:38.022Z,11.77
2022-08-27T05:04:06.159Z,12.75
2022-08-27T05:06:34.447Z,9.15
2022-08-27T05:09:02.168Z,7.55
2022-08-27T05:11:34.400Z,15.00
2022-08-27T05:14:03.789Z,17.10
2022-08-27T05:16:31.877Z,14.23
2022-08-27T05:19:00.094Z,10.80
2022-08-27T05:21:32.478Z,12.80
2022-08-27T05:24:01.407Z,12.07
2022-08-27T05:26:29.951Z,14.90
2022-08-27T05:29:00.158Z,14.60
2022-08-27T05:31:28.493Z,16.30
2022-08-27T05:33:57.746Z,19.40
2022-08-27T05:36:27.215Z,16.42
2022-08-27T05:38:55.936Z,12.43
2022-08-27T05:41:33.856Z,14.50
2022-08-27T05:44:18.440Z,16.92
2022-08-27T05:46:52.278Z,20.23
2022-08-27T05:49:20.024Z,25.92
2022-08-27T05:51:48.857Z,24.42
2022-08-27T05:54:19.493Z,18.90
2022-08-27T05:56:49.633Z,19.83
2022-08-27T05:59:36.705Z,26.33
2022-08-27T06:02:06.243Z,15.98
2022-08-27T06:04:34.378Z,16.17
2022-08-27T06:07:02.299Z,13.07
2022-08-27T06:09:31.036Z,15.63
2022-08-27T06:12:00.085Z,13.40
2022-08-27T06:14:28.062Z,14.70
2022-08-27T06:16:56.269Z,13.45
2022-08-27T06:19:24.215Z,14.18
2022-08-27T06:22:00.807Z,14.30
2022-08-27T06:24:39.010Z,19.02
2022-08-27T06:27:06.962Z,12.75
2022-08-27T06:29:35.277Z,12.65
2022-08-27T06:32:03.272Z,13.93
2022-08-27T06:34:30.981Z,18.75
2022-08-27T06:36:58.732Z,15.95
2022-08-27T06:39:26.473Z,17.85
2022-08-27T06:41:54.218Z,19.25
2022-08-27T06:44:24.337Z,18.27
2022-08-27T06:46:52.374Z,17.58
2022-08-27T06:49:20.086Z,15.70
2022-08-27T06:51:48.406Z,12.55
2022-08-27T06:54:16.910Z,16.58
2022-08-27T06:56:45.035Z,15.43
2022-08-27T06:59:15.044Z,12.93
2022-08-27T07:01:44.494Z,13.25
2022-08-27T07:04:14.952Z,16.13
2022-08-27T07:06:43.538Z,12.43
2022-08-27T07:09:11.010Z,12.88
2022-08-27T07:11:38.699Z,14.80
2022-08-27T07:14:07.179Z,10.43
2022-08-27T07:16:35.385Z,10.40
2022-08-27T07:19:05.742Z,9.45
2022-08-27T07:21:34.319Z,11.73
2022-08-27T07:24:04.947Z,15.00
2022-08-27T07:26:35.515Z,11.38
2022-08-27T07:29:04.983Z,10.25
2022-08-27T07:31:35.435Z,8.80
2022-08-27T07:34:04.844Z,10.60
2022-08-27T07:36:34.212Z,6.82
2022-08-27T07:39:02.222Z,8.40
2022-08-27T07:41:53.768Z,8.80
2022-08-27T07:44:31.035Z,8.48
2022-08-27T07:47:02.507Z,9.85
2022-08-27T07:49:31.849Z,11.70
2022-08-27T07:51:59.346Z,9.82
2022-08-27T07:54:27.021Z,8.27
2022-08-27T07:56:56.132Z,6.97
2022-08-27T07:59:25.059Z,9.32
2022-08-27T08:01:55.022Z,9.02
2022-08-27T08:04:22.943Z,10.95
2022-08-27T08:06:51.121Z,7.20
2022-08-27T08:09:19.522Z,9.98
2022-08-27T08:11:46.948Z,11.43
2022-08-27T08:14:14.370Z,8.38
2022-08-27T08:16:41.806Z,8.30
2022-08-27T08:19:09.481Z,7.85
2022-08-27T08:21:38.533Z,9.07
2022-08-27T08:24:06.633Z,7.25
2022-08-27T08:26:34.651Z,11.00
2022-08-27T08:29:05.009Z,9.02
2022-08-27T08:31:32.597Z,7.93
2022-08-27T08:34:01.093Z,7.72
2022-08-27T08:36:28.768Z,8.88
2022-08-27T08:38:56.606Z,15.68
2022-08-27T08:41:50.385Z,12.23
2022-08-27T08:44:26.702Z,8.35
2022-08-27T08:47:01.781Z,10.13
2022-08-27T08:49:55.024Z,11.02
2022-08-27T08:52:31.361Z,10.15
2022-08-27T08:55:10.879Z,11.07
2022-08-27T08:57:47.309Z,9.45
2022-08-27T09:00:15.108Z,6.95
2022-08-27T09:02:50.553Z,12.20
2022-08-27T09:05:18.729Z,8.32
2022-08-27T09:07:52.103Z,7.20
2022-08-27T09:10:28.431Z,8.15
2022-08-27T09:13:00.010Z,11.93
2022-08-27T09:15:34.141Z,6.72
2022-08-27T09:18:19.546Z,4.55
2022-08-27T09:20:53.584Z,6.53
2022-08-27T09:23:21.897Z,9.55
2022-08-27T09:25:49.457Z,7.53
2022-08-27T09:28:42.378Z,9.00
2022-08-27T09:31:13.712Z,8.68
2022-08-27T09:33:54.940Z,9.83
2022-08-27T09:36:25.303Z,8.75
2022-08-27T09:39:02.699Z,6.93
2022-08-27T09:41:36.320Z,9.27
2022-08-27T09:44:10.560Z,9.40
2022-08-27T09:46:39.441Z,9.05
2022-08-27T09:49:15.657Z,7.82
2022-08-27T09:51:45.628Z,6.18
2022-08-27T09:54:42.307Z,7.43
2022-08-27T09:57:12.493Z,10.30
2022-08-27T09:59:54.961Z,14.40
2022-08-27T10:02:25.412Z,14.27
2022-08-27T10:05:01.370Z,0.35
2022-08-27T10:07:41.242Z,0.47
2022-08-27T10:10:21.811Z,0.00
2022-08-27T10:12:52.485Z,0.50
2022-08-27T10:15:20.435Z,0.30
2022-08-27T10:17:48.147Z,0.08
2022-08-27T10:20:24.315Z,0.00
2022-08-27T10:23:31.378Z,0.00
2022-08-27T10:26:10.772Z,0.05
2022-08-27T10:29:01.891Z,0.00
2022-08-27T10:31:31.457Z,0.00
2022-08-27T10:34:27.251Z,0.10
2022-08-27T10:36:57.806Z,0.10
2022-08-27T10:39:55.914Z,0.00
2022-08-27T10:42:34.414Z,0.17
2022-08-27T10:45:30.622Z,0.10
2022-08-27T10:48:15.832Z,0.03
2022-08-27T10:50:50.523Z,0.10
2022-08-27T10:53:27.422Z,0.25
2022-08-27T10:56:21.146Z,0.20
2022-08-27T10:59:23.585Z,0.50
2022-08-27T11:02:18.180Z,0.30
2022-08-27T11:04:51.354Z,0.30
2022-08-27T11:07:35.824Z,0.00
2022-08-27T11:10:10.645Z,0.10
2022-08-27T11:12:42.948Z,0.47
2022-08-27T11:15:18.102Z,0.00
2022-08-27T11:18:03.821Z,0.17
2022-08-27T11:21:04.688Z,4.10
2022-08-27T11:23:50.614Z,0.52
2022-08-27T11:26:19.164Z,0.30
2022-08-27T11:29:01.808Z,0.57
2022-08-27T11:31:43.575Z,0.73
2022-08-27T11:34:32.661Z,0.13
2022-08-27T11:37:11.436Z,0.13
2022-08-27T11:39:41.811Z,0.08
2022-08-27T11:42:27.940Z,0.90
2022-08-27T11:45:04.738Z,0.00
2022-08-27T11:47:33.472Z,0.45
2022-08-27T11:50:16.335Z,0.10
2022-08-27T11:52:58.714Z,0.75
2022-08-27T11:55:31.269Z,0.30
2022-08-27T11:58:18.007Z,0.00
2022-08-27T12:00:46.834Z,0.10
2022-08-27T12:03:20.430Z,3.17
2022-08-27T12:05:53.893Z,0.00
2022-08-27T12:08:24.564Z,0.88
2022-08-27T12:11:16.583Z,0.00
2022-08-27T12:13:50.228Z,0.10
2022-08-27T12:16:36.101Z,1.67
2022-08-27T12:19:28.339Z,0.00
2022-08-27T12:22:14.393Z,0.35
2022-08-27T12:24:56.790Z,0.10
2022-08-27T12:27:34.570Z,0.25
2022-08-27T12:30:21.906Z,4.60
2022-08-27T12:32:52.588Z,0.50
2022-08-27T12:35:37.947Z,0.52
2022-08-27T12:38:40.106Z,0.13
2022-08-27T12:41:11.580Z,0.10
2022-08-27T12:43:43.435Z,0.00
2022-08-27T12:46:18.959Z,0.00
2022-08-27T12:48:57.190Z,0.25
2022-08-27T12:51:36.178Z,0.25
2022-08-27T12:54:34.858Z,0.95
2022-08-27T12:57:18.723Z,0.00
2022-08-27T13:00:14.224Z,0.00
2022-08-27T13:03:22.401Z,4.80
2022-08-27T13:05:51.053Z,0.30
2022-08-27T13:08:21.896Z,0.20
2022-08-27T13:10:50.477Z,0.10
2022-08-27T13:13:22.193Z,0.10
2022-08-27T13:15:59.315Z,0.43
2022-08-27T13:18:30.073Z,0.00
2022-08-27T13:21:23.203Z,0.93
2022-08-27T13:24:05.330Z,0.00
2022-08-27T13:26:38.644Z,0.20
2022-08-27T13:29:07.679Z,0.45
2022-08-27T13:31:36.110Z,0.28
2022-08-27T13:34:06.425Z,0.22
2022-08-27T13:36:38.120Z,0.20
2022-08-27T13:39:07.271Z,0.10
2022-08-27T13:41:37.415Z,6.90
2022-08-27T13:44:09.531Z,1.20
2022-08-27T13:46:47.606Z,0.20
2022-08-27T13:49:19.383Z,0.00
2022-08-27T13:51:47.802Z,0.80
2022-08-27T13:54:18.026Z,0.63
2022-08-27T13:56:49.024Z,2.33
2022-08-27T13:59:20.106Z,2.25
2022-08-27T14:02:09.654Z,0.20
2022-08-27T14:04:39.110Z,0.47
2022-08-27T14:07:10.813Z,0.15
2022-08-27T14:09:54.122Z,0.45
2022-08-27T14:12:38.407Z,0.15
2022-08-27T14:15:28.265Z,0.73
2022-08-27T14:17:56.751Z,0.20
2022-08-27T14:20:25.636Z,0.28
2022-08-27T14:22:53.652Z,0.10
2022-08-27T14:25:22.563Z,0.10
2022-08-27T14:27:57.113Z,0.35
2022-08-27T14:30:30.044Z,0.00
2022-08-27T14:33:00.523Z,0.45
2022-08-27T14:35:30.696Z,0.10
2022-08-27T14:38:00.562Z,0.20
2022-08-27T14:40:28.021Z,0.00
2022-08-27T14:42:55.543Z,0.13
2022-08-27T14:45:23.299Z,1.02
2022-08-27T14:47:51.483Z,0.08
2022-08-27T14:50:19.005Z,1.65
2022-08-27T14:52:46.548Z,0.75
2022-08-27T14:55:14.418Z,0.10
2022-08-27T14:57:41.907Z,0.38
2022-08-27T15:00:10.626Z,0.47
2022-08-27T15:02:44.046Z,0.43
2022-08-27T15:05:17.660Z,0.65
2022-08-27T15:07:47.359Z,0.40
2022-08-27T15:10:15.757Z,0.57
2022-08-27T15:12:43.531Z,1.35
2022-08-27T15:15:11.991Z,7.65
2022-08-27T15:17:39.509Z,7.95
2022-08-27T15:20:18.918Z,8.77
2022-08-27T15:22:50.938Z,9.73
2022-08-27T15:25:19.299Z,11.38
2022-08-27T15:27:46.779Z,10.30
2022-08-27T15:30:15.707Z,8.13
2022-08-27T15:32:47.984Z,8.73
2022-08-27T15:35:19.108Z,11.77
2022-08-27T15:37:47.105Z,7.65
2022-08-27T15:40:16.530Z,7.32
2022-08-27T15:42:45.071Z,8.50
2022-08-27T15:45:14.242Z,9.40
2022-08-27T15:47:41.779Z,8.30
2022-08-27T15:50:09.562Z,10.35
2022-08-27T15:52:40.870Z,8.95
2022-08-27T15:55:24.091Z,7.78
2022-08-27T15:57:51.879Z,8.73
2022-08-27T16:00:20.295Z,8.50
2022-08-27T16:02:49.283Z,5.93
2022-08-27T16:05:17.821Z,7.85
2022-08-27T16:07:45.704Z,5.15
2022-08-27T16:10:14.487Z,9.52
2022-08-27T16:12:41.983Z,9.82
2022-08-27T16:15:09.874Z,6.82
2022-08-27T16:17:37.558Z,6.93
2022-08-27T16:20:07.619Z,6.63
2022-08-27T16:22:35.223Z,6.80
2022-08-27T16:25:04.451Z,5.05
2022-08-27T16:27:33.289Z,4.95
2022-08-27T16:30:01.222Z,5.28
2022-08-27T16:32:31.321Z,6.40
2022-08-27T16:34:58.944Z,6.88
2022-08-27T16:37:26.920Z,5.18
2022-08-27T16:39:54.412Z,6.95
2022-08-27T16:42:22.286Z,5.93
2022-08-27T16:44:50.094Z,6.05
2022-08-27T16:47:18.181Z,10.07
2022-08-27T16:50:04.219Z,11.32
2022-08-27T16:52:31.685Z,5.07
2022-08-27T16:55:00.208Z,5.47
2022-08-27T16:57:27.790Z,5.03
2022-08-27T16:59:55.928Z,6.32
2022-08-27T17:02:31.301Z,5.97
2022-08-27T17:05:17.827Z,3.97
2022-08-27T17:07:49.250Z,3.95
2022-08-27T17:10:18.710Z,4.72
2022-08-27T17:12:47.960Z,8.93
2022-08-27T17:15:16.917Z,3.78
2022-08-27T17:17:45.184Z,5.13
2022-08-27T17:20:15.219Z,5.25
2022-08-27T17:22:43.346Z,5.90
2022-08-27T17:25:11.336Z,5.70
2022-08-27T17:27:38.947Z,5.20
2022-08-27T17:30:07.794Z,7.35
2022-08-27T17:33:14.989Z,12.20
2022-08-27T17:35:42.501Z,10.13
2022-08-27T17:38:10.051Z,13.32
2022-08-27T17:40:37.914Z,10.05
2022-08-27T17:43:06.367Z,5.80
2022-08-27T17:45:33.826Z,11.20
2022-08-27T17:48:01.307Z,8.82
2022-08-27T17:50:39.708Z,7.57
2022-08-27T17:53:08.027Z,6.78
2022-08-27T17:55:36.305Z,7.53
2022-08-27T17:58:04.444Z,9.00
2022-08-27T18:00:32.628Z,6.63
2022-08-27T18:03:00.438Z,7.18
2022-08-27T18:05:28.253Z,6.75
2022-08-27T18:07:57.409Z,6.50
2022-08-27T18:10:26.164Z,12.15
2022-08-27T18:12:55.890Z,12.65
2022-08-27T18:15:32.292Z,12.50
2022-08-27T18:17:59.957Z,8.05
2022-08-27T18:20:29.750Z,12.77
2022-08-27T18:22:57.280Z,9.77
2022-08-27T18:25:32.694Z,11.10
2022-08-27T18:28:07.321Z,13.55
2022-08-27T18:30:36.009Z,15.38
2022-08-27T18:33:03.874Z,10.05
2022-08-27T18:35:33.507Z,12.32
2022-08-27T18:38:02.100Z,11.68
2022-08-27T18:40:34.579Z,13.23
2022-08-27T18:43:05.197Z,59.55
2022-08-27T18:45:35.923Z,40.55
2022-08-27T18:48:11.670Z,21.50
2022-08-27T18:50:45.172Z,16.02
2022-08-27T18:53:16.136Z,14.52
2022-08-27T18:55:44.753Z,14.85
2022-08-27T18:58:12.992Z,15.00
2022-08-27T19:00:43.328Z,15.85
2022-08-27T19:03:11.728Z,14.32
2022-08-27T19:05:39.204Z,32.58
2022-08-27T19:08:10.817Z,27.77
2022-08-27T19:10:38.463Z,18.55
2022-08-27T19:13:06.223Z,15.57
2022-08-27T19:15:33.831Z,16.17
2022-08-27T19:18:04.751Z,14.95
2022-08-27T19:20:32.403Z,17.40
2022-08-27T19:23:00.120Z,16.23
2022-08-27T19:25:29.157Z,16.10
2022-08-27T19:27:56.751Z,14.35
2022-08-27T19:30:24.368Z,15.65
2022-08-27T19:32:54.818Z,13.40
2022-08-27T19:35:24.783Z,14.50
2022-08-27T19:37:52.823Z,14.77
2022-08-27T19:40:22.327Z,18.40
2022-08-27T19:42:50.861Z,12.65
2022-08-27T19:45:23.067Z,14.88
2022-08-27T19:47:52.768Z,16.27
2022-08-27T19:50:21.641Z,13.00
2022-08-27T19:52:50.422Z,12.07
2022-08-27T19:55:18.362Z,12.70
2022-08-27T19:57:47.604Z,16.50
2022-08-27T20:00:19.008Z,44.80
2022-08-27T20:02:46.800Z,16.52
2022-08-27T20:05:18.713Z,16.25
2022-08-27T20:07:51.865Z,12.85
2022-08-27T20:10:31.488Z,9.45
2022-08-27T20:13:04.657Z,8.77
2022-08-27T20:15:33.253Z,10.02
2022-08-27T20:18:01.177Z,9.82
2022-08-27T20:20:30.254Z,9.40
2022-08-27T20:22:59.335Z,10.25
2022-08-27T20:25:26.908Z,11.48
2022-08-27T20:27:54.588Z,8.70
2022-08-27T20:30:25.348Z,9.50
2022-08-27T20:32:52.926Z,9.55
2022-08-27T20:35:21.527Z,10.77
2022-08-27T20:37:49.644Z,8.40
2022-08-27T20:40:22.390Z,8.38
2022-08-27T20:42:50.030Z,9.65
2022-08-27T20:45:18.946Z,12.75
2022-08-27T20:47:48.609Z,9.20
2022-08-27T20:50:18.313Z,8.75
2022-08-27T20:52:46.078Z,9.68
2022-08-27T20:55:14.493Z,8.07
2022-08-27T20:58:06.355Z,7.30
2022-08-27T21:00:36.371Z,10.85
2022-08-27T21:03:04.184Z,7.47
2022-08-27T21:05:34.330Z,5.75
2022-08-27T21:08:06.434Z,4.75
2022-08-27T21:13:05.261Z,5.00
2022-08-27T21:15:33.681Z,6.15
2022-08-27T21:18:01.138Z,3.33
2022-08-27T21:20:28.669Z,5.05
2022-08-27T21:22:57.733Z,8.52
2022-08-27T21:25:25.975Z,3.70
2022-08-27T21:27:55.091Z,5.28
2022-08-27T21:30:24.530Z,3.88
2022-08-27T21:32:55.855Z,4.28
2022-08-27T21:35:27.382Z,8.20
2022-08-27T21:37:56.803Z,5.57
2022-08-27T21:40:26.401Z,19.20
2022-08-27T21:42:54.777Z,10.18
2022-08-27T21:45:22.728Z,12.52
2022-08-27T21:47:51.856Z,8.82
2022-08-27T21:50:20.110Z,14.85
2022-08-27T21:52:48.061Z,14.73
2022-08-27T21:55:16.166Z,14.13
2022-08-27T21:57:43.628Z,11.57
2022-08-27T22:00:29.535Z,12.63
2022-08-27T22:02:57.229Z,12.70
2022-08-27T22:05:24.919Z,16.77
2022-08-27T22:07:52.352Z,12.20
2022-08-27T22:10:19.949Z,11.63
2022-08-27T22:12:47.422Z,11.27
2022-08-27T22:15:14.832Z,10.38
2022-08-27T22:17:42.347Z,11.38
2022-08-27T22:20:10.567Z,12.10
2022-08-27T22:22:38.222Z,14.98
2022-08-27T22:25:07.470Z,10.98
2022-08-27T22:27:35.240Z,10.00
2022-08-27T22:30:03.092Z,12.70
2022-08-27T22:32:30.603Z,10.60
2022-08-27T22:34:58.216Z,6.25
2022-08-27T22:37:26.423Z,7.90
2022-08-27T22:39:53.927Z,8.07
2022-08-27T22:42:22.479Z,8.30
2022-08-27T22:44:49.914Z,7.25
2022-08-27T22:47:17.554Z,6.07
2022-08-27T22:49:45.049Z,7.95
2022-08-27T22:52:12.560Z,8.80
2022-08-27T22:54:39.986Z,7.55
2022-08-27T22:57:09.824Z,9.85
2022-08-27T22:59:39.046Z,7.28
2022-08-27T23:02:09.570Z,6.07
2022-08-27T23:04:53.976Z,8.68
2022-08-27T23:07:23.847Z,6.75
2022-08-27T23:09:51.332Z,6.68
2022-08-27T23:12:19.899Z,7.78
2022-08-27T23:14:47.521Z,10.23
2022-08-27T23:17:16.226Z,7.38
2022-08-27T23:19:44.695Z,11.60
2022-08-27T23:22:12.451Z,7.78
2022-08-27T23:24:59.825Z,9.13
2022-08-27T23:27:30.370Z,8.40
2022-08-27T23:30:00.426Z,14.25
2022-08-27T23:32:29.075Z,8.95
2022-08-27T23:34:57.307Z,7.97
2022-08-27T23:37:24.927Z,7.55
2022-08-27T23:39:52.576Z,5.45
2022-08-27T23:42:20.346Z,8.27
2022-08-27T23:44:49.298Z,6.68
2022-08-27T23:47:17.866Z,6.78
2022-08-27T23:49:45.627Z,9.57
2022-08-27T23:52:13.372Z,7.28
2022-08-27T23:54:41.556Z,8.00
2022-08-27T23:57:09.167Z,5.95
2022-08-27T23:59:36.813Z,8.88
